createdAt,value
2019-03-30T00:00:09.077Z,76.96
2019-03-30T00:01:09.036Z,77.37
2019-03-30T00:02:09.018Z,77.26
2019-03-30T00:03:09.051Z,77.37
2019-03-30T00:04:08.998Z,77.37
2019-03-30T00:05:08.991Z,77.37
2019-03-30T00:06:08.993Z,77.51
2019-03-30T00:07:08.968Z,77.51
2019-03-30T00:08:08.948Z,77.40
2019-03-30T00:09:08.984Z,77.51
2019-03-30T00:10:08.928Z,77.81
2019-03-30T00:11:08.948Z,77.92
2019-03-30T00:12:08.918Z,78.02
2019-03-30T00:13:08.908Z,77.92
2019-03-30T00:14:08.887Z,77.81
2019-03-30T00:15:08.908Z,77.95
2019-03-30T00:16:08.884Z,77.95
2019-03-30T00:17:08.870Z,77.85
2019-03-30T00:18:08.861Z,78.06
2019-03-30T00:19:08.828Z,78.06
2019-03-30T00:20:08.890Z,78.16
2019-03-30T00:21:08.809Z,78.36
2019-03-30T00:22:08.799Z,78.36
2019-03-30T00:23:08.847Z,78.47
2019-03-30T00:24:08.784Z,78.61
2019-03-30T00:25:08.767Z,78.50
2019-03-30T00:26:08.781Z,78.40
2019-03-30T00:27:08.749Z,78.71
2019-03-30T00:28:08.777Z,78.71
2019-03-30T00:29:08.721Z,78.61
2019-03-30T00:30:08.748Z,78.61
2019-03-30T00:31:08.698Z,78.92
2019-03-30T00:32:08.728Z,78.92
2019-03-30T00:33:08.688Z,78.71
2019-03-30T00:34:08.688Z,78.92
2019-03-30T00:35:08.657Z,78.85
2019-03-30T00:36:08.657Z,78.96
2019-03-30T00:37:08.700Z,79.05
2019-03-30T00:38:08.658Z,79.05
2019-03-30T00:39:08.609Z,79.26
2019-03-30T00:40:08.607Z,79.16
2019-03-30T00:41:08.597Z,79.16
2019-03-30T00:42:08.629Z,79.05
2019-03-30T00:43:08.567Z,79.26
2019-03-30T00:44:08.567Z,79.16
2019-03-30T00:45:08.564Z,79.05
2019-03-30T00:46:08.540Z,79.05
2019-03-30T00:47:08.527Z,78.85
2019-03-30T00:48:08.600Z,78.96
2019-03-30T00:49:08.517Z,79.16
2019-03-30T00:50:08.497Z,79.16
2019-03-30T00:51:08.495Z,79.36
2019-03-30T00:52:08.478Z,79.36
2019-03-30T00:53:08.468Z,79.26
2019-03-30T00:54:08.487Z,79.36
2019-03-30T00:55:08.447Z,79.36
2019-03-30T00:56:08.427Z,79.26
2019-03-30T00:57:08.469Z,79.26
2019-03-30T00:58:08.407Z,79.16
2019-03-30T00:59:08.439Z,79.19
2019-03-30T01:00:08.378Z,79.40
2019-03-30T01:01:08.376Z,79.50
2019-03-30T01:02:08.368Z,79.61
2019-03-30T01:03:08.397Z,79.61
2019-03-30T01:04:08.348Z,79.40
2019-03-30T01:05:08.327Z,79.61
2019-03-30T01:06:08.327Z,79.71
2019-03-30T01:07:08.307Z,79.61
2019-03-30T01:08:08.318Z,79.64
2019-03-30T01:09:08.317Z,79.95
2019-03-30T01:10:08.311Z,79.95
2019-03-30T01:11:08.289Z,79.85
2019-03-30T01:12:08.257Z,79.85
2019-03-30T01:13:08.297Z,79.75
2019-03-30T01:14:08.307Z,79.75
2019-03-30T01:15:08.230Z,79.85
2019-03-30T01:16:08.207Z,79.95
2019-03-30T01:17:08.208Z,80.16
2019-03-30T01:18:08.199Z,80.26
2019-03-30T01:19:08.328Z,80.26
2019-03-30T01:20:08.249Z,80.16
2019-03-30T01:21:08.157Z,80.05
2019-03-30T01:22:08.146Z,80.16
2019-03-30T01:23:08.136Z,80.16
2019-03-30T01:24:08.128Z,80.09
2019-03-30T01:25:08.110Z,80.19
2019-03-30T01:26:08.177Z,80.30
2019-03-30T01:27:08.096Z,80.40
2019-03-30T01:28:08.097Z,80.51
2019-03-30T01:29:08.071Z,80.40
2019-03-30T01:30:22.218Z,80.40
2019-03-30T01:31:09.086Z,80.51
2019-03-30T01:32:08.039Z,80.40
2019-03-30T01:33:08.028Z,80.51
2019-03-30T01:34:08.019Z,80.51
2019-03-30T01:35:08.055Z,80.51
2019-03-30T01:36:08.007Z,80.61
2019-03-30T01:37:08.002Z,80.71
2019-03-30T01:38:07.969Z,80.61
2019-03-30T01:39:08.007Z,80.51
2019-03-30T01:40:07.969Z,80.40
2019-03-30T01:41:07.945Z,80.40
2019-03-30T01:42:07.927Z,80.71
2019-03-30T01:43:07.931Z,80.61
2019-03-30T01:44:15.007Z,80.61
2019-03-30T01:45:07.922Z,80.71
2019-03-30T01:46:07.900Z,80.71
2019-03-30T01:47:07.879Z,80.81
2019-03-30T01:48:07.939Z,80.61
2019-03-30T01:49:07.854Z,80.30
2019-03-30T01:50:17.206Z,80.19
2019-03-30T01:51:08.826Z,80.19
2019-03-30T01:52:07.808Z,80.40
2019-03-30T01:53:07.807Z,80.51
2019-03-30T01:54:07.846Z,80.40
2019-03-30T01:55:07.778Z,80.51
2019-03-30T01:56:07.766Z,80.61
2019-03-30T01:57:07.766Z,80.51
2019-03-30T01:58:07.746Z,80.51
2019-03-30T01:59:07.746Z,80.30
2019-03-30T02:00:07.744Z,80.19
2019-03-30T02:01:07.716Z,80.30
2019-03-30T02:02:07.706Z,80.30
2019-03-30T02:03:07.706Z,80.09
2019-03-30T02:04:07.700Z,80.16
2019-03-30T02:05:07.668Z,79.88
2019-03-30T02:06:07.686Z,79.68
2019-03-30T02:07:07.706Z,79.58
2019-03-30T02:08:07.638Z,79.68
2019-03-30T02:09:07.665Z,79.79
2019-03-30T02:10:07.616Z,79.68
2019-03-30T02:11:07.607Z,79.88
2019-03-30T02:12:07.608Z,79.79
2019-03-30T02:13:07.589Z,79.88
2019-03-30T02:14:07.574Z,79.88
2019-03-30T02:15:07.649Z,79.88
2019-03-30T02:16:07.546Z,79.79
2019-03-30T02:17:07.591Z,79.88
2019-03-30T02:18:07.536Z,79.99
2019-03-30T02:19:07.515Z,79.68
2019-03-30T02:20:07.526Z,79.79
2019-03-30T02:21:07.535Z,80.19
2019-03-30T02:22:07.501Z,80.33
2019-03-30T02:23:07.476Z,80.30
2019-03-30T02:24:07.466Z,80.13
2019-03-30T02:25:07.455Z,80.13
2019-03-30T02:26:07.436Z,80.23
2019-03-30T02:27:07.466Z,80.23
2019-03-30T02:28:07.439Z,80.33
2019-03-30T02:29:07.465Z,80.44
2019-03-30T02:30:07.439Z,80.54
2019-03-30T02:31:07.429Z,80.54
2019-03-30T02:32:07.376Z,80.75
2019-03-30T02:33:07.367Z,80.65
2019-03-30T02:34:07.377Z,80.54
2019-03-30T02:35:07.349Z,80.33
2019-03-30T02:36:07.347Z,80.44
2019-03-30T02:37:07.382Z,80.54
2019-03-30T02:38:07.491Z,80.68
2019-03-30T02:39:07.307Z,80.58
2019-03-30T02:40:07.347Z,80.58
2019-03-30T02:41:07.287Z,80.79
2019-03-30T02:42:07.281Z,80.68
2019-03-30T02:43:07.286Z,80.68
2019-03-30T02:44:07.256Z,80.79
2019-03-30T02:45:07.246Z,80.79
2019-03-30T02:46:07.300Z,80.89
2019-03-30T02:47:07.247Z,80.99
2019-03-30T02:48:07.209Z,81.20
2019-03-30T02:49:07.196Z,81.20
2019-03-30T02:50:07.191Z,81.09
2019-03-30T02:51:07.183Z,81.20
2019-03-30T02:52:07.167Z,81.09
2019-03-30T02:53:07.250Z,81.23
2019-03-30T02:54:07.146Z,81.34
2019-03-30T02:55:07.131Z,81.23
2019-03-30T02:56:07.117Z,81.23
2019-03-30T02:57:07.120Z,81.34
2019-03-30T02:58:07.099Z,81.34
2019-03-30T02:59:07.136Z,81.23
2019-03-30T03:00:07.227Z,81.23
2019-03-30T03:01:07.067Z,81.34
2019-03-30T03:02:07.057Z,81.44
2019-03-30T03:03:07.047Z,81.65
2019-03-30T03:04:07.089Z,81.54
2019-03-30T03:05:07.027Z,81.54
2019-03-30T03:06:07.021Z,81.44
2019-03-30T03:07:07.004Z,81.54
2019-03-30T03:08:07.023Z,81.65
2019-03-30T03:09:06.975Z,81.75
2019-03-30T03:10:06.996Z,81.54
2019-03-30T03:11:06.960Z,81.44
2019-03-30T03:12:06.948Z,81.34
2019-03-30T03:13:06.926Z,81.54
2019-03-30T03:14:06.936Z,81.58
2019-03-30T03:15:06.909Z,81.68
2019-03-30T03:16:06.900Z,81.68
2019-03-30T03:17:06.900Z,81.79
2019-03-30T03:18:07.030Z,81.68
2019-03-30T03:19:06.906Z,81.68
2019-03-30T03:20:06.862Z,81.58
2019-03-30T03:21:08.539Z,81.58
2019-03-30T03:22:06.837Z,81.68
2019-03-30T03:23:06.823Z,81.68
2019-03-30T03:24:06.830Z,81.79
2019-03-30T03:25:06.836Z,81.79
2019-03-30T03:26:06.809Z,81.79
2019-03-30T03:27:06.792Z,81.79
2019-03-30T03:28:06.780Z,81.79
2019-03-30T03:29:06.765Z,82.10
2019-03-30T03:30:06.847Z,81.99
2019-03-30T03:31:06.753Z,81.89
2019-03-30T03:32:06.750Z,81.93
2019-03-30T03:33:06.740Z,81.93
2019-03-30T03:34:06.710Z,81.93
2019-03-30T03:35:06.705Z,81.93
2019-03-30T03:36:06.738Z,82.03
2019-03-30T03:37:06.700Z,82.14
2019-03-30T03:38:06.669Z,82.34
2019-03-30T03:39:06.750Z,82.34
2019-03-30T03:40:06.822Z,82.34
2019-03-30T03:41:06.758Z,82.55
2019-03-30T03:42:06.658Z,82.55
2019-03-30T03:43:06.708Z,82.45
2019-03-30T03:44:06.608Z,82.34
2019-03-30T03:45:06.772Z,82.34
2019-03-30T03:46:06.626Z,82.45
2019-03-30T03:47:06.566Z,82.24
2019-03-30T03:48:06.575Z,82.14
2019-03-30T03:49:06.552Z,82.34
2019-03-30T03:50:06.540Z,82.55
2019-03-30T03:51:24.466Z,82.38
2019-03-30T03:52:07.533Z,82.38
2019-03-30T03:53:06.508Z,82.48
2019-03-30T03:54:06.497Z,82.48
2019-03-30T03:55:06.491Z,82.48
2019-03-30T03:56:06.662Z,82.59
2019-03-30T03:57:06.495Z,82.59
2019-03-30T03:58:06.447Z,82.59
2019-03-30T03:59:06.436Z,82.59
2019-03-30T04:00:06.426Z,82.59
2019-03-30T04:01:06.436Z,82.79
2019-03-30T04:02:06.455Z,82.69
2019-03-30T04:03:06.395Z,82.69
2019-03-30T04:04:06.399Z,82.69
2019-03-30T04:05:06.378Z,82.79
2019-03-30T04:06:06.385Z,82.83
2019-03-30T04:07:06.345Z,82.83
2019-03-30T04:08:06.375Z,82.73
2019-03-30T04:09:06.358Z,82.83
2019-03-30T04:10:06.332Z,82.93
2019-03-30T04:11:06.305Z,83.04
2019-03-30T04:12:06.367Z,83.04
2019-03-30T04:13:07.170Z,83.04
2019-03-30T04:14:06.288Z,83.04
2019-03-30T04:15:06.301Z,83.14
2019-03-30T04:16:06.259Z,83.25
2019-03-30T04:17:06.246Z,83.25
2019-03-30T04:18:06.248Z,83.14
2019-03-30T04:19:06.278Z,83.14
2019-03-30T04:20:06.238Z,83.25
2019-03-30T04:21:06.205Z,83.25
2019-03-30T04:22:06.198Z,83.25
2019-03-30T04:23:06.228Z,83.25
2019-03-30T04:24:06.186Z,83.14
2019-03-30T04:25:06.182Z,83.04
2019-03-30T04:26:06.146Z,83.07
2019-03-30T04:27:06.135Z,83.18
2019-03-30T04:28:06.276Z,83.39
2019-03-30T04:29:06.108Z,83.59
2019-03-30T04:30:06.105Z,83.59
2019-03-30T04:31:06.137Z,83.59
2019-03-30T04:32:06.087Z,83.49
2019-03-30T04:33:06.079Z,83.49
2019-03-30T04:34:06.094Z,83.70
2019-03-30T04:35:06.052Z,83.49
2019-03-30T04:36:06.070Z,83.59
2019-03-30T04:37:06.080Z,83.70
2019-03-30T04:38:06.100Z,83.70
2019-03-30T04:39:06.029Z,83.70
2019-03-30T04:40:05.996Z,83.70
2019-03-30T04:41:05.985Z,83.80
2019-03-30T04:42:05.987Z,83.70
2019-03-30T04:43:05.961Z,83.70
2019-03-30T04:44:06.033Z,83.70
2019-03-30T04:45:05.934Z,83.70
2019-03-30T04:46:05.970Z,83.70
2019-03-30T04:47:05.914Z,83.49
2019-03-30T04:48:05.905Z,83.63
2019-03-30T04:49:05.955Z,83.84
2019-03-30T04:50:05.929Z,83.94
2019-03-30T04:51:05.904Z,83.94
2019-03-30T04:52:05.858Z,84.15
2019-03-30T04:53:05.855Z,84.25
2019-03-30T04:54:05.875Z,84.25
2019-03-30T04:55:05.824Z,84.15
2019-03-30T04:56:05.857Z,84.15
2019-03-30T04:57:05.806Z,84.15
2019-03-30T04:58:09.066Z,84.25
2019-03-30T04:59:05.797Z,84.15
2019-03-30T05:00:05.774Z,84.15
2019-03-30T05:01:05.800Z,84.15
2019-03-30T05:02:05.754Z,84.05
2019-03-30T05:03:05.766Z,84.05
2019-03-30T05:04:05.748Z,84.05
2019-03-30T05:05:05.724Z,84.05
2019-03-30T05:06:05.704Z,83.94
2019-03-30T05:07:05.738Z,83.94
2019-03-30T05:08:05.694Z,83.94
2019-03-30T05:09:05.684Z,83.94
2019-03-30T05:10:05.664Z,83.94
2019-03-30T05:11:05.653Z,83.94
2019-03-30T05:12:05.715Z,83.94
2019-03-30T05:13:05.654Z,84.05
2019-03-30T05:14:05.624Z,84.25
2019-03-30T05:15:05.613Z,84.36
2019-03-30T05:16:05.605Z,84.45
2019-03-30T05:17:05.584Z,84.36
2019-03-30T05:18:05.623Z,84.05
2019-03-30T05:19:05.657Z,83.94
2019-03-30T05:20:05.553Z,83.63
2019-03-30T05:21:05.553Z,83.53
2019-03-30T05:22:12.615Z,83.73
2019-03-30T05:23:06.566Z,83.94
2019-03-30T05:24:05.524Z,84.15
2019-03-30T05:25:05.513Z,84.15
2019-03-30T05:26:05.517Z,84.05
2019-03-30T05:27:05.492Z,84.15
2019-03-30T05:28:05.474Z,84.05
2019-03-30T05:29:05.493Z,84.15
2019-03-30T05:30:05.452Z,84.15
2019-03-30T05:31:05.441Z,84.05
2019-03-30T05:32:05.424Z,83.94
2019-03-30T05:33:06.514Z,84.05
2019-03-30T05:34:05.413Z,84.05
2019-03-30T05:35:05.404Z,84.05
2019-03-30T05:36:05.395Z,84.05
2019-03-30T05:37:05.384Z,84.05
2019-03-30T05:38:05.371Z,84.25
2019-03-30T05:39:05.395Z,84.25
2019-03-30T05:40:05.354Z,84.36
2019-03-30T05:41:05.333Z,84.25
2019-03-30T05:42:05.350Z,84.05
2019-03-30T05:43:05.326Z,83.94
2019-03-30T05:44:05.303Z,84.05
2019-03-30T05:45:05.336Z,84.15
2019-03-30T05:46:05.286Z,84.11
2019-03-30T05:47:05.293Z,84.11
2019-03-30T05:48:05.263Z,84.11
2019-03-30T05:49:05.253Z,84.11
2019-03-30T05:50:05.235Z,84.00
2019-03-30T05:51:05.249Z,83.80
2019-03-30T05:52:05.224Z,83.59
2019-03-30T05:53:05.226Z,83.80
2019-03-30T05:54:05.205Z,83.80
2019-03-30T05:55:05.182Z,83.86
2019-03-30T05:56:05.203Z,84.07
2019-03-30T05:57:05.241Z,84.07
2019-03-30T05:58:05.144Z,84.07
2019-03-30T05:59:05.213Z,83.97
2019-03-30T06:00:05.122Z,83.86
2019-03-30T06:01:05.116Z,83.76
2019-03-30T06:02:05.153Z,83.65
2019-03-30T06:03:05.099Z,83.65
2019-03-30T06:04:05.092Z,83.51
2019-03-30T06:05:05.083Z,83.41
2019-03-30T06:06:05.063Z,83.31
2019-03-30T06:07:05.057Z,82.96
2019-03-30T06:08:05.054Z,82.65
2019-03-30T06:09:05.024Z,82.34
2019-03-30T06:10:05.024Z,82.14
2019-03-30T06:11:05.013Z,81.79
2019-03-30T06:12:05.181Z,81.58
2019-03-30T06:13:05.023Z,81.13
2019-03-30T06:14:05.023Z,80.82
2019-03-30T06:15:04.993Z,80.47
2019-03-30T06:16:04.952Z,80.37
2019-03-30T06:17:04.951Z,80.27
2019-03-30T06:18:04.934Z,79.93
2019-03-30T06:19:04.973Z,79.20
2019-03-30T06:20:04.903Z,79.00
2019-03-30T06:21:04.907Z,78.86
2019-03-30T06:22:04.882Z,78.24
2019-03-30T06:23:04.883Z,77.58
2019-03-30T06:24:04.944Z,77.48
2019-03-30T06:25:04.873Z,77.24
2019-03-30T06:26:04.880Z,77.03
2019-03-30T06:27:04.833Z,76.42
2019-03-30T06:28:04.831Z,76.07
2019-03-30T06:29:04.814Z,75.46
2019-03-30T06:30:04.865Z,75.32
2019-03-30T06:31:04.874Z,75.21
2019-03-30T06:32:04.783Z,74.50
2019-03-30T06:33:04.774Z,74.46
2019-03-30T06:34:04.794Z,74.67
2019-03-30T06:35:04.764Z,74.46
2019-03-30T06:36:04.772Z,74.57
2019-03-30T06:37:04.732Z,73.61
2019-03-30T06:38:04.724Z,73.71
2019-03-30T06:39:04.710Z,73.40
2019-03-30T06:40:04.685Z,73.40
2019-03-30T06:41:04.753Z,73.27
2019-03-30T06:42:04.672Z,73.27
2019-03-30T06:43:07.527Z,73.06
2019-03-30T06:44:04.649Z,73.16
2019-03-30T06:45:04.653Z,72.65
2019-03-30T06:46:04.633Z,72.72
2019-03-30T06:47:04.682Z,72.31
2019-03-30T06:48:04.612Z,72.00
2019-03-30T06:49:04.598Z,72.31
2019-03-30T06:50:04.604Z,71.69
2019-03-30T06:51:04.572Z,71.04
2019-03-30T06:52:04.602Z,71.25
2019-03-30T06:53:04.554Z,70.43
2019-03-30T06:54:04.553Z,70.60
2019-03-30T06:55:04.533Z,70.19
2019-03-30T06:56:04.570Z,69.98
2019-03-30T06:57:04.513Z,70.16
2019-03-30T06:58:04.494Z,69.44
2019-03-30T06:59:04.488Z,68.08
2019-03-30T07:00:04.497Z,67.94
2019-03-30T07:01:04.554Z,67.50
2019-03-30T07:02:04.484Z,67.47
2019-03-30T07:03:04.446Z,66.83
2019-03-30T07:04:04.447Z,66.28
2019-03-30T07:05:04.420Z,64.52
2019-03-30T07:06:04.417Z,63.90
2019-03-30T07:07:04.404Z,63.49
2019-03-30T07:08:04.443Z,63.57
2019-03-30T07:09:04.389Z,63.98
2019-03-30T07:10:04.369Z,63.85
2019-03-30T07:11:04.358Z,62.93
2019-03-30T07:12:04.424Z,63.03
2019-03-30T07:13:04.339Z,63.10
2019-03-30T07:14:04.365Z,62.39
2019-03-30T07:15:04.315Z,62.18
2019-03-30T07:16:04.305Z,62.26
2019-03-30T07:17:04.290Z,61.27
2019-03-30T07:18:04.278Z,61.68
2019-03-30T07:19:04.278Z,61.98
2019-03-30T07:20:04.285Z,61.75
2019-03-30T07:21:04.236Z,62.56
2019-03-30T07:22:04.226Z,61.82
2019-03-30T07:23:11.579Z,60.80
2019-03-30T07:24:05.264Z,60.60
2019-03-30T07:25:04.197Z,60.70
2019-03-30T07:26:04.248Z,60.80
2019-03-30T07:27:04.180Z,61.72
2019-03-30T07:28:04.172Z,61.38
2019-03-30T07:29:04.155Z,61.59
2019-03-30T07:30:04.149Z,61.25
2019-03-30T07:31:04.157Z,60.72
2019-03-30T07:32:04.130Z,59.67
2019-03-30T07:33:04.107Z,59.57
2019-03-30T07:34:04.097Z,59.54
2019-03-30T07:35:04.102Z,58.73
2019-03-30T07:36:04.085Z,58.53
2019-03-30T07:37:04.098Z,57.61
2019-03-30T07:38:04.057Z,57.71
2019-03-30T07:39:04.049Z,58.12
2019-03-30T07:40:04.028Z,58.42
2019-03-30T07:41:04.020Z,58.33
2019-03-30T07:42:04.118Z,57.99
2019-03-30T07:43:04.013Z,58.80
2019-03-30T07:44:04.010Z,57.38
2019-03-30T07:45:04.006Z,56.77
2019-03-30T07:46:03.969Z,57.10
2019-03-30T07:47:03.961Z,57.31
2019-03-30T07:48:03.962Z,57.92
2019-03-30T07:49:03.972Z,57.89
2019-03-30T07:50:04.014Z,57.28
2019-03-30T07:51:03.929Z,57.59
2019-03-30T07:52:03.922Z,57.08
2019-03-30T07:53:03.913Z,57.38
2019-03-30T07:54:03.880Z,57.48
2019-03-30T07:55:03.871Z,57.59
2019-03-30T07:56:08.751Z,58.06
2019-03-30T07:57:16.356Z,56.54
2019-03-30T07:58:04.893Z,57.05
2019-03-30T07:59:03.831Z,57.05
2019-03-30T08:00:03.817Z,56.04
2019-03-30T08:01:03.815Z,56.44
2019-03-30T08:02:03.848Z,56.41
2019-03-30T08:03:03.797Z,55.80
2019-03-30T08:04:03.777Z,55.91
2019-03-30T08:05:03.765Z,56.29
2019-03-30T08:06:03.753Z,55.71
2019-03-30T08:07:03.793Z,56.11
2019-03-30T08:08:03.818Z,55.17
2019-03-30T08:09:03.737Z,56.49
2019-03-30T08:10:03.740Z,55.76
2019-03-30T08:11:03.694Z,55.25
2019-03-30T08:12:03.712Z,55.15
2019-03-30T08:13:03.693Z,55.65
2019-03-30T08:14:03.665Z,56.44
2019-03-30T08:15:03.654Z,55.12
2019-03-30T08:16:03.636Z,55.30
2019-03-30T08:17:03.627Z,54.28
2019-03-30T08:18:03.658Z,54.49
2019-03-30T08:19:03.626Z,55.68
2019-03-30T08:20:03.636Z,54.86
2019-03-30T08:21:03.600Z,54.53
2019-03-30T08:22:03.577Z,54.53
2019-03-30T08:23:03.567Z,54.21
2019-03-30T08:24:03.611Z,54.11
2019-03-30T08:25:03.542Z,53.90
2019-03-30T08:26:03.530Z,52.79
2019-03-30T08:27:03.535Z,52.64
2019-03-30T08:28:03.521Z,53.07
2019-03-30T08:29:03.499Z,53.27
2019-03-30T08:30:03.522Z,54.11
2019-03-30T08:31:03.518Z,55.02
2019-03-30T08:32:03.518Z,54.21
2019-03-30T08:33:03.516Z,54.44
2019-03-30T08:34:03.441Z,54.94
2019-03-30T08:35:03.448Z,54.84
2019-03-30T08:36:03.422Z,55.52
2019-03-30T08:37:03.442Z,55.93
2019-03-30T08:38:03.412Z,55.90
2019-03-30T08:39:03.439Z,55.47
2019-03-30T08:40:03.381Z,55.44
2019-03-30T08:41:03.370Z,55.02
2019-03-30T08:42:03.414Z,54.31
2019-03-30T08:43:03.376Z,53.58
2019-03-30T08:44:03.407Z,53.07
2019-03-30T08:45:03.323Z,53.55
2019-03-30T08:46:03.402Z,52.23
2019-03-30T08:47:03.323Z,51.53
2019-03-30T08:48:03.295Z,51.88
2019-03-30T08:49:03.284Z,52.89
2019-03-30T08:50:03.352Z,52.81
2019-03-30T08:51:03.269Z,53.63
2019-03-30T08:52:03.277Z,54.21
2019-03-30T08:53:03.245Z,52.89
2019-03-30T08:54:03.233Z,52.08
2019-03-30T08:55:03.232Z,52.61
2019-03-30T08:56:03.239Z,52.72
2019-03-30T08:57:03.207Z,53.12
2019-03-30T08:58:03.189Z,54.11
2019-03-30T08:59:03.176Z,52.59
2019-03-30T09:00:03.185Z,53.07
2019-03-30T09:01:03.207Z,53.25
2019-03-30T09:02:03.153Z,53.05
2019-03-30T09:03:03.143Z,53.22
2019-03-30T09:04:03.135Z,52.69
2019-03-30T09:05:03.132Z,52.47
2019-03-30T09:06:03.113Z,50.22
2019-03-30T09:07:03.138Z,50.22
2019-03-30T09:08:03.185Z,51.03
2019-03-30T09:09:03.085Z,50.80
2019-03-30T09:10:03.067Z,49.37
2019-03-30T09:11:03.052Z,49.47
2019-03-30T09:12:03.053Z,50.48
2019-03-30T09:13:03.055Z,50.98
2019-03-30T09:14:03.020Z,50.98
2019-03-30T09:15:03.000Z,50.25
2019-03-30T09:16:03.017Z,50.56
2019-03-30T09:17:02.985Z,50.02
2019-03-30T09:18:03.056Z,50.53
2019-03-30T09:19:02.965Z,50.31
2019-03-30T09:20:03.025Z,49.30
2019-03-30T09:21:02.949Z,48.79
2019-03-30T09:22:03.043Z,48.39
2019-03-30T09:23:02.915Z,49.19
2019-03-30T09:24:09.727Z,49.07
2019-03-30T09:25:03.917Z,48.87
2019-03-30T09:26:02.899Z,49.37
2019-03-30T09:27:02.888Z,47.85
2019-03-30T09:28:02.880Z,47.66
2019-03-30T09:29:02.856Z,48.17
2019-03-30T09:30:02.928Z,48.57
2019-03-30T09:31:02.836Z,47.77
2019-03-30T09:32:13.569Z,46.98
2019-03-30T09:33:03.816Z,48.61
2019-03-30T09:34:02.818Z,48.59
2019-03-30T09:35:02.807Z,49.60
2019-03-30T09:36:02.816Z,47.97
2019-03-30T09:37:02.784Z,48.67
2019-03-30T09:38:02.775Z,47.34
2019-03-30T09:39:02.792Z,47.74
2019-03-30T09:40:02.747Z,46.64
2019-03-30T09:41:02.760Z,46.46
2019-03-30T09:42:02.721Z,47.89
2019-03-30T09:43:02.712Z,47.79
2019-03-30T09:44:02.694Z,47.36
2019-03-30T09:45:02.690Z,46.96
2019-03-30T09:46:02.719Z,47.85
2019-03-30T09:47:02.683Z,49.25
2019-03-30T09:48:02.651Z,47.72
2019-03-30T09:49:02.657Z,46.09
2019-03-30T09:50:03.056Z,47.30
2019-03-30T09:51:02.626Z,47.70
2019-03-30T09:52:02.665Z,46.87
2019-03-30T09:53:02.607Z,47.75
2019-03-30T09:54:02.594Z,45.72
2019-03-30T09:55:02.596Z,45.62
2019-03-30T09:56:02.625Z,45.42
2019-03-30T09:57:02.558Z,45.10
2019-03-30T09:58:02.559Z,44.52
2019-03-30T09:59:02.619Z,44.52
2019-03-30T10:00:02.528Z,45.02
2019-03-30T10:01:02.511Z,45.32
2019-03-30T10:02:02.555Z,44.52
2019-03-30T10:03:05.805Z,44.92
2019-03-30T10:04:02.519Z,44.74
2019-03-30T10:05:02.487Z,46.04
2019-03-30T10:06:02.500Z,46.12
2019-03-30T10:07:02.446Z,45.32
2019-03-30T10:08:02.438Z,45.32
2019-03-30T10:09:02.466Z,45.53
2019-03-30T10:10:02.417Z,43.94
2019-03-30T10:11:02.447Z,44.76
2019-03-30T10:12:02.407Z,46.37
2019-03-30T10:13:02.391Z,45.97
2019-03-30T10:14:02.374Z,46.17
2019-03-30T10:15:02.372Z,45.75
2019-03-30T10:16:02.352Z,45.04
2019-03-30T10:17:02.403Z,43.54
2019-03-30T10:18:02.331Z,45.04
2019-03-30T10:19:02.344Z,43.44
2019-03-30T10:20:04.698Z,43.54
2019-03-30T10:21:02.311Z,43.84
2019-03-30T10:22:02.348Z,44.74
2019-03-30T10:23:02.290Z,44.95
2019-03-30T10:24:02.279Z,45.62
2019-03-30T10:25:02.265Z,44.62
2019-03-30T10:26:02.242Z,44.80
2019-03-30T10:27:02.272Z,44.78
2019-03-30T10:28:02.280Z,44.18
2019-03-30T10:29:02.286Z,44.26
2019-03-30T10:30:02.214Z,44.46
2019-03-30T10:31:02.202Z,43.84
2019-03-30T10:32:02.199Z,42.54
2019-03-30T10:33:02.176Z,42.63
2019-03-30T10:34:02.165Z,43.08
2019-03-30T10:35:02.208Z,42.49
2019-03-30T10:36:02.145Z,43.22
2019-03-30T10:37:02.135Z,44.72
2019-03-30T10:38:02.130Z,45.02
2019-03-30T10:39:02.140Z,42.30
2019-03-30T10:40:02.098Z,43.18
2019-03-30T10:41:02.127Z,42.18
2019-03-30T10:42:02.097Z,42.46
2019-03-30T10:43:02.107Z,41.99
2019-03-30T10:44:02.057Z,43.70
2019-03-30T10:45:02.081Z,43.19
2019-03-30T10:46:02.049Z,42.99
2019-03-30T10:47:02.092Z,44.00
2019-03-30T10:48:02.009Z,45.60
2019-03-30T10:49:02.015Z,44.28
2019-03-30T10:50:02.006Z,42.55
2019-03-30T10:51:01.996Z,43.24
2019-03-30T10:52:01.981Z,42.83
2019-03-30T10:53:01.992Z,43.12
2019-03-30T10:54:01.991Z,41.91
2019-03-30T10:55:01.942Z,41.19
2019-03-30T10:56:02.071Z,41.80
2019-03-30T10:57:01.936Z,41.89
2019-03-30T10:58:01.963Z,39.79
2019-03-30T10:59:01.922Z,40.81
2019-03-30T11:00:01.885Z,40.91
2019-03-30T11:01:01.897Z,41.33
2019-03-30T11:02:01.884Z,41.93
2019-03-30T11:03:01.857Z,41.31
2019-03-30T11:04:01.926Z,42.41
2019-03-30T11:05:01.845Z,41.52
2019-03-30T11:06:01.828Z,41.99
2019-03-30T11:07:01.839Z,39.89
2019-03-30T11:08:01.808Z,42.02
2019-03-30T11:09:01.796Z,42.29
2019-03-30T11:10:01.807Z,42.49
2019-03-30T11:11:01.858Z,41.69
2019-03-30T11:12:01.764Z,40.37
2019-03-30T11:13:01.762Z,41.47
2019-03-30T11:14:01.747Z,40.30
2019-03-30T11:15:01.756Z,41.11
2019-03-30T11:16:01.740Z,41.93
2019-03-30T11:17:01.749Z,42.43
2019-03-30T11:18:01.709Z,42.24
2019-03-30T11:19:01.690Z,43.43
2019-03-30T11:20:01.693Z,42.93
2019-03-30T11:21:01.720Z,42.74
2019-03-30T11:22:03.151Z,43.74
2019-03-30T11:23:01.656Z,43.93
2019-03-30T11:24:01.641Z,43.33
2019-03-30T11:25:07.692Z,43.33
2019-03-30T11:26:02.692Z,43.43
2019-03-30T11:27:01.614Z,43.26
2019-03-30T11:28:01.593Z,43.35
2019-03-30T11:29:01.583Z,43.98
2019-03-30T11:30:01.583Z,44.18
2019-03-30T11:31:03.892Z,44.38
2019-03-30T11:32:01.584Z,44.40
2019-03-30T11:33:01.545Z,43.92
2019-03-30T11:34:01.535Z,45.42
2019-03-30T11:35:01.526Z,44.22
2019-03-30T11:36:01.504Z,45.12
2019-03-30T11:37:01.525Z,45.92
2019-03-30T11:38:01.496Z,45.25
2019-03-30T11:39:01.515Z,45.14
2019-03-30T11:40:01.466Z,45.95
2019-03-30T11:41:01.455Z,46.15
2019-03-30T11:42:01.446Z,44.84
2019-03-30T11:43:01.428Z,46.04
2019-03-30T11:44:01.475Z,46.15
2019-03-30T11:45:01.448Z,45.84
2019-03-30T11:46:01.421Z,46.04
2019-03-30T11:47:01.396Z,45.75
2019-03-30T11:48:01.389Z,45.84
2019-03-30T11:49:01.407Z,45.75
2019-03-30T11:50:01.369Z,45.14
2019-03-30T11:51:01.357Z,45.54
2019-03-30T11:52:01.352Z,45.34
2019-03-30T11:53:01.333Z,45.54
2019-03-30T11:54:01.361Z,45.75
2019-03-30T11:55:01.311Z,44.87
2019-03-30T11:56:01.330Z,45.57
2019-03-30T11:57:01.291Z,45.69
2019-03-30T11:58:01.281Z,46.19
2019-03-30T11:59:01.338Z,45.89
2019-03-30T12:00:01.267Z,46.09
2019-03-30T12:01:01.255Z,44.18
2019-03-30T12:02:01.231Z,44.89
2019-03-30T12:03:01.235Z,44.89
2019-03-30T12:04:01.266Z,44.59
2019-03-30T12:05:01.192Z,44.48
2019-03-30T12:06:01.193Z,44.60
2019-03-30T12:07:01.172Z,44.31
2019-03-30T12:08:01.227Z,44.40
2019-03-30T12:09:01.164Z,44.00
2019-03-30T12:10:01.148Z,44.38
2019-03-30T12:11:01.204Z,44.59
2019-03-30T12:12:01.126Z,43.38
2019-03-30T12:13:01.144Z,44.08
2019-03-30T12:14:01.136Z,43.98
2019-03-30T12:15:01.100Z,42.78
2019-03-30T12:16:01.098Z,42.80
2019-03-30T12:17:01.065Z,42.49
2019-03-30T12:18:01.118Z,42.40
2019-03-30T12:19:01.054Z,42.92
2019-03-30T12:20:01.048Z,42.72
2019-03-30T12:21:01.076Z,42.10
2019-03-30T12:22:01.025Z,41.79
2019-03-30T12:23:01.007Z,41.57
2019-03-30T12:24:01.009Z,41.07
2019-03-30T12:25:00.998Z,41.85
2019-03-30T12:26:00.979Z,42.63
2019-03-30T12:27:01.021Z,41.03
2019-03-30T12:28:00.959Z,41.11
2019-03-30T12:29:00.955Z,41.51
2019-03-30T12:30:00.928Z,40.19
2019-03-30T12:31:00.929Z,39.07
2019-03-30T12:32:00.913Z,39.87
2019-03-30T12:33:01.005Z,39.25
2019-03-30T12:34:00.880Z,39.25
2019-03-30T12:35:00.918Z,38.73
2019-03-30T12:36:00.901Z,38.85
2019-03-30T12:37:00.852Z,39.55
2019-03-30T12:38:00.892Z,39.45
2019-03-30T12:39:00.842Z,39.25
2019-03-30T12:40:00.834Z,41.05
2019-03-30T12:41:00.812Z,41.13
2019-03-30T12:42:00.809Z,40.73
2019-03-30T12:43:00.794Z,40.81
2019-03-30T12:44:00.794Z,39.51
2019-03-30T12:45:00.776Z,40.31
2019-03-30T12:46:00.763Z,41.02
2019-03-30T12:47:00.756Z,40.30
2019-03-30T12:48:00.775Z,40.89
2019-03-30T12:49:00.765Z,40.17
2019-03-30T12:50:00.738Z,39.87
2019-03-30T12:51:00.715Z,39.18
2019-03-30T12:52:00.709Z,39.58